Time;durP1;ratioP1;P1;durP2;ratioP2;P2;SDS_P1;SDS_P2;PMS_P1;PMS_P2;Temp;Humidity;BMP_temperature;BMP_pressure;BME280_temperature;BME280_humidity;BME280_pressure;Samples;Min_cycle;Max_cycle;Signal;HPM_P1;HPM_P2
2022/03/30 00:01:24;;;;;;;27.77;12.20;;;5.00;99.90;;;;;;5020297;28;20041;-70
2022/03/30 00:03:50;;;;;;;21.38;11.50;;;5.10;99.90;;;;;;5019548;28;20133;-70
2022/03/30 00:06:16;;;;;;;21.33;10.73;;;5.00;99.90;;;;;;5022075;28;20099;-70
2022/03/30 00:08:42;;;;;;;19.35;10.57;;;5.10;99.90;;;;;;5021826;28;20527;-70
2022/03/30 00:11:10;;;;;;;20.73;11.27;;;5.10;99.90;;;;;;5022037;28;20052;-70
2022/03/30 00:13:35;;;;;;;28.65;13.00;;;5.10;99.90;;;;;;5021070;28;20036;-70
2022/03/30 00:16:02;;;;;;;23.90;12.00;;;5.20;99.90;;;;;;5019189;28;20046;-70
2022/03/30 00:18:28;;;;;;;28.75;13.68;;;5.20;99.90;;;;;;5021707;28;20033;-70
2022/03/30 00:20:53;;;;;;;30.35;13.50;;;5.20;99.90;;;;;;5020512;28;20145;-70
2022/03/30 00:23:19;;;;;;;28.00;13.30;;;5.20;99.90;;;;;;5020335;28;20038;-70
2022/03/30 00:25:45;;;;;;;24.80;12.45;;;5.20;99.90;;;;;;4988284;28;20057;-70
2022/03/30 00:28:11;;;;;;;24.25;13.18;;;5.20;99.90;;;;;;5019522;28;20535;-70
2022/03/30 00:30:36;;;;;;;21.98;12.57;;;5.20;99.90;;;;;;5019913;28;20052;-70
2022/03/30 00:33:02;;;;;;;26.92;13.13;;;5.20;99.90;;;;;;5019212;28;20524;-70
2022/03/30 00:35:28;;;;;;;24.50;12.80;;;5.20;99.90;;;;;;5021286;28;20030;-70
2022/03/30 00:37:53;;;;;;;23.00;13.48;;;5.20;99.90;;;;;;5021393;28;20041;-70
2022/03/30 00:40:19;;;;;;;23.17;12.48;;;5.10;99.90;;;;;;5023594;28;20045;-70
2022/03/30 00:42:45;;;;;;;25.92;11.07;;;5.10;99.90;;;;;;5006158;28;20045;-70
2022/03/30 00:45:13;;;;;;;19.60;10.95;;;5.10;99.90;;;;;;5018930;28;20121;-70
2022/03/30 00:47:41;;;;;;;19.85;11.70;;;5.00;99.90;;;;;;5022214;28;20048;-70
2022/03/30 00:50:08;;;;;;;24.15;11.18;;;5.00;99.90;;;;;;5021954;28;20040;-70
2022/03/30 00:52:34;;;;;;;24.33;12.45;;;5.00;99.90;;;;;;5036745;28;20048;-70
2022/03/30 00:55:01;;;;;;;23.70;11.90;;;5.10;99.90;;;;;;5018355;28;20037;-70
2022/03/30 00:57:29;;;;;;;27.55;11.18;;;5.10;99.90;;;;;;5021232;28;20045;-70
2022/03/30 00:59:56;;;;;;;20.45;10.60;;;5.00;99.90;;;;;;5020553;28;20041;-70
2022/03/30 01:02:23;;;;;;;21.02;12.02;;;5.00;99.90;;;;;;5017498;28;20452;-69
2022/03/30 01:04:49;;;;;;;21.38;10.30;;;4.90;99.90;;;;;;5001021;28;20053;-70
2022/03/30 01:07:15;;;;;;;18.35;10.82;;;4.90;99.90;;;;;;5016946;28;20052;-70
2022/03/30 01:09:41;;;;;;;20.45;11.57;;;4.90;99.90;;;;;;5014437;28;20069;-70
2022/03/30 01:12:09;;;;;;;23.35;11.43;;;4.90;99.90;;;;;;5015659;28;20051;-70
2022/03/30 01:14:35;;;;;;;21.52;12.50;;;4.90;99.90;;;;;;5016935;28;20176;-70
2022/03/30 01:17:01;;;;;;;24.85;12.70;;;4.90;99.90;;;;;;5021392;28;20067;-70
2022/03/30 01:19:32;;;;;;;24.63;13.10;;;4.80;99.90;;;;;;5014721;28;20038;-70
2022/03/30 01:21:59;;;;;;;26.48;14.55;;;4.80;99.90;;;;;;5013666;28;20044;-70
2022/03/30 01:24:25;;;;;;;32.65;15.13;;;4.80;99.90;;;;;;5016117;28;21559;-70
2022/03/30 01:26:50;;;;;;;22.77;13.18;;;4.70;99.90;;;;;;5015802;28;20042;-70
2022/03/30 01:34:45;;;;;;;27.52;13.68;;;4.70;99.90;;;;;;5014580;28;20128;-70
2022/03/30 01:37:12;;;;;;;28.90;13.82;;;4.70;99.90;;;;;;5017762;28;20037;-70
2022/03/30 01:39:39;;;;;;;31.35;14.70;;;4.70;99.90;;;;;;5017665;28;20045;-70
2022/03/30 01:42:05;;;;;;;33.15;14.85;;;4.80;99.90;;;;;;5015101;28;20053;-70
2022/03/30 01:44:31;;;;;;;28.77;15.68;;;4.70;99.90;;;;;;5017842;28;20395;-70
2022/03/30 01:46:57;;;;;;;29.08;15.68;;;4.80;99.90;;;;;;5015239;28;20048;-70
2022/03/30 01:49:24;;;;;;;26.15;14.23;;;4.80;99.90;;;;;;5016626;28;20037;-70
2022/03/30 01:51:51;;;;;;;26.48;14.20;;;4.90;99.90;;;;;;5014752;28;20074;-70
2022/03/30 01:54:20;;;;;;;26.30;14.68;;;4.90;99.90;;;;;;5014619;28;20048;-70
2022/03/30 01:56:47;;;;;;;22.20;13.45;;;4.90;99.90;;;;;;5016993;28;20052;-70
2022/03/30 01:59:13;;;;;;;26.95;14.20;;;5.00;99.90;;;;;;5000328;28;20057;-70
2022/03/30 02:01:40;;;;;;;27.83;14.00;;;4.90;99.90;;;;;;5016078;28;20053;-70
2022/03/30 02:04:07;;;;;;;26.85;15.43;;;4.90;99.90;;;;;;5014338;28;20831;-70
2022/03/30 02:06:34;;;;;;;25.67;14.38;;;5.00;99.90;;;;;;5015675;28;20056;-71
2022/03/30 02:09:00;;;;;;;26.80;14.93;;;5.10;99.90;;;;;;5017728;28;20042;-71
2022/03/30 02:11:26;;;;;;;28.65;15.45;;;4.90;99.90;;;;;;5013409;28;20046;-71
2022/03/30 02:13:52;;;;;;;30.33;15.35;;;4.90;99.90;;;;;;5015521;28;20049;-71
2022/03/30 02:16:19;;;;;;;30.05;14.73;;;4.80;99.90;;;;;;5017434;28;20045;-71
2022/03/30 02:18:46;;;;;;;29.27;15.10;;;4.80;99.90;;;;;;5017502;28;20049;-71
2022/03/30 02:21:12;;;;;;;33.78;15.35;;;4.80;99.90;;;;;;5021158;28;20049;-71
2022/03/30 02:23:39;;;;;;;29.77;16.63;;;4.80;99.90;;;;;;5020139;28;20055;-71
2022/03/30 02:26:05;;;;;;;27.38;15.20;;;4.90;99.90;;;;;;5021142;28;20041;-71
2022/03/30 02:28:31;;;;;;;23.50;14.15;;;4.90;99.90;;;;;;5020895;28;20041;-71
2022/03/30 02:30:57;;;;;;;27.38;14.90;;;4.90;99.90;;;;;;5018176;28;20128;-71
2022/03/30 02:33:23;;;;;;;29.20;15.82;;;4.90;99.90;;;;;;5017513;28;20088;-71
2022/03/30 02:35:50;;;;;;;26.33;14.57;;;5.00;99.90;;;;;;5006943;28;20029;-71
2022/03/30 02:38:16;;;;;;;28.85;16.02;;;5.00;99.90;;;;;;5017537;28;21493;-71
2022/03/30 02:40:41;;;;;;;26.08;15.20;;;5.00;99.90;;;;;;5021045;28;20044;-71
2022/03/30 02:43:07;;;;;;;29.02;15.30;;;5.00;99.90;;;;;;5018062;28;20087;-71
2022/03/30 02:45:33;;;;;;;28.75;15.07;;;5.10;99.90;;;;;;5017420;28;20038;-72
2022/03/30 02:50:44;;;;;;;31.45;14.82;;;5.20;99.90;;;;;;5021960;28;20050;-71
2022/03/30 02:53:10;;;;;;;29.15;14.50;;;5.20;99.90;;;;;;5017309;28;20431;-71
2022/03/30 02:55:36;;;;;;;29.38;15.60;;;5.20;99.90;;;;;;5017836;28;20033;-71
2022/03/30 02:58:01;;;;;;;26.10;14.77;;;5.30;99.90;;;;;;5018045;28;20044;-71
2022/03/30 03:00:28;;;;;;;29.95;14.75;;;5.30;99.90;;;;;;5017280;28;20037;-71
2022/03/30 03:02:53;;;;;;;25.25;14.43;;;5.30;99.90;;;;;;5020146;28;20034;-71
2022/03/30 03:05:19;;;;;;;32.65;14.60;;;5.30;99.90;;;;;;5018980;28;20052;-71
2022/03/30 03:07:44;;;;;;;27.85;15.57;;;5.30;99.90;;;;;;5019302;28;20046;-71
2022/03/30 03:10:10;;;;;;;29.08;14.00;;;5.30;99.90;;;;;;5017945;28;20105;-71
2022/03/30 03:12:36;;;;;;;23.55;14.30;;;5.40;99.90;;;;;;5019134;28;20057;-71
2022/03/30 03:15:02;;;;;;;31.05;14.90;;;5.30;99.90;;;;;;5019420;28;20049;-71
2022/03/30 03:17:28;;;;;;;29.52;15.48;;;5.40;99.90;;;;;;5019086;28;20052;-71
2022/03/30 03:19:53;;;;;;;29.40;14.32;;;5.50;99.90;;;;;;5019878;28;20065;-71
2022/03/30 03:22:19;;;;;;;27.88;14.23;;;5.60;99.90;;;;;;5019071;28;20049;-71
2022/03/30 03:24:45;;;;;;;33.05;14.73;;;5.50;99.90;;;;;;5016147;28;20045;-71
2022/03/30 03:27:11;;;;;;;32.42;15.10;;;5.50;99.90;;;;;;5017235;28;20471;-71
2022/03/30 03:29:37;;;;;;;31.90;15.55;;;5.50;99.90;;;;;;5017251;28;20045;-71
2022/03/30 03:32:03;;;;;;;28.77;16.25;;;5.60;99.90;;;;;;5018818;28;21293;-71
2022/03/30 03:34:29;;;;;;;30.67;15.55;;;5.50;99.90;;;;;;4999316;28;20213;-71
2022/03/30 03:36:54;;;;;;;26.55;15.35;;;5.60;99.90;;;;;;5018181;28;20040;-71
2022/03/30 03:39:20;;;;;;;33.22;14.95;;;5.60;99.90;;;;;;5018044;28;20044;-71
2022/03/30 03:41:45;;;;;;;32.53;14.23;;;5.60;99.90;;;;;;5016474;28;20468;-71
2022/03/30 03:44:11;;;;;;;24.02;14.13;;;5.60;99.90;;;;;;5018770;28;20410;-71
2022/03/30 03:46:37;;;;;;;28.35;13.48;;;5.60;99.90;;;;;;5017962;28;20042;-71
2022/03/30 03:49:02;;;;;;;33.00;15.00;;;5.60;99.90;;;;;;5016577;28;20069;-71
2022/03/30 03:51:28;;;;;;;24.25;13.55;;;5.60;99.90;;;;;;5017263;28;20192;-71
2022/03/30 03:53:54;;;;;;;28.20;13.35;;;5.50;99.90;;;;;;5018648;28;20049;-71
2022/03/30 03:56:20;;;;;;;29.88;13.50;;;5.60;99.90;;;;;;5002258;28;20618;-71
2022/03/30 03:58:49;;;;;;;25.63;13.57;;;5.60;99.90;;;;;;5015813;28;20033;-71
2022/03/30 04:01:14;;;;;;;26.77;13.55;;;5.60;99.90;;;;;;5018737;28;20045;-71
2022/03/30 04:03:42;;;;;;;28.20;13.82;;;5.60;99.90;;;;;;5017817;28;20033;-71
2022/03/30 04:06:08;;;;;;;29.05;13.30;;;5.70;99.90;;;;;;5018434;28;20061;-71
2022/03/30 04:08:35;;;;;;;29.85;14.00;;;5.70;99.90;;;;;;5015622;28;20045;-71
2022/03/30 04:11:00;;;;;;;28.25;12.57;;;5.70;99.90;;;;;;5017042;28;20048;-71
2022/03/30 04:13:26;;;;;;;22.33;13.27;;;5.70;99.90;;;;;;5016005;28;20034;-71
2022/03/30 04:15:52;;;;;;;29.92;14.57;;;5.70;99.90;;;;;;5021592;28;20033;-71
2022/03/30 04:18:17;;;;;;;28.92;14.27;;;5.80;99.90;;;;;;5021522;28;20069;-71
2022/03/30 04:20:43;;;;;;;26.20;14.00;;;5.80;99.90;;;;;;5019125;28;20048;-71
2022/03/30 04:23:09;;;;;;;25.42;13.63;;;5.70;99.90;;;;;;5021512;28;20030;-71
2022/03/30 04:25:35;;;;;;;26.73;14.38;;;5.70;99.90;;;;;;5024767;28;20128;-71
2022/03/30 04:28:00;;;;;;;28.13;13.63;;;5.70;99.90;;;;;;5021393;28;20048;-71
2022/03/30 04:30:26;;;;;;;34.80;14.55;;;5.80;99.90;;;;;;5022237;28;20037;-71
2022/03/30 04:32:52;;;;;;;27.20;14.93;;;5.80;99.90;;;;;;5022198;28;20041;-71
2022/03/30 04:35:24;;;;;;;39.47;15.00;;;5.80;99.90;;;;;;5021944;28;20041;-71
2022/03/30 04:37:53;;;;;;;30.02;14.32;;;5.70;99.90;;;;;;5023401;28;20515;-71
2022/03/30 04:40:18;;;;;;;27.27;13.57;;;5.70;99.90;;;;;;5018250;28;20423;-71
2022/03/30 04:42:44;;;;;;;33.20;14.77;;;5.70;99.90;;;;;;5016435;28;20037;-71
2022/03/30 04:45:10;;;;;;;27.42;13.25;;;5.70;99.90;;;;;;5021724;28;20053;-71
2022/03/30 04:47:35;;;;;;;28.75;14.45;;;5.80;99.90;;;;;;5017786;28;20037;-71
2022/03/30 04:50:02;;;;;;;23.90;13.85;;;5.80;99.90;;;;;;5020617;28;20499;-71
2022/03/30 04:52:29;;;;;;;27.00;14.23;;;5.80;99.90;;;;;;5022105;28;20033;-71
2022/03/30 04:54:54;;;;;;;28.52;14.23;;;5.90;99.90;;;;;;5019098;28;20049;-71
2022/03/30 04:57:20;;;;;;;27.63;13.65;;;5.90;99.90;;;;;;5022765;28;20534;-71
2022/03/30 04:59:46;;;;;;;27.98;14.48;;;5.90;99.90;;;;;;5020292;28;20658;-71
2022/03/30 05:02:12;;;;;;;25.17;12.65;;;5.90;99.90;;;;;;5019200;28;20037;-71
2022/03/30 05:04:38;;;;;;;29.00;14.15;;;6.00;99.90;;;;;;5018898;28;20045;-71
2022/03/30 05:07:04;;;;;;;24.65;13.23;;;6.00;99.90;;;;;;5004961;28;20033;-71
2022/03/30 05:09:29;;;;;;;24.08;13.07;;;6.00;99.90;;;;;;5018994;28;20041;-71
2022/03/30 05:11:55;;;;;;;21.63;9.95;;;6.00;99.90;;;;;;5024638;28;20041;-71
2022/03/30 05:14:21;;;;;;;12.95;8.93;;;6.00;99.90;;;;;;5022688;28;20041;-71
2022/03/30 05:16:47;;;;;;;18.60;7.70;;;6.10;99.90;;;;;;5017870;28;20064;-71
2022/03/30 05:19:13;;;;;;;12.50;4.00;;;6.10;99.90;;;;;;5020047;28;20069;-71
2022/03/30 05:21:39;;;;;;;3.75;2.33;;;6.10;99.90;;;;;;5019812;28;20136;-73
2022/03/30 05:24:05;;;;;;;5.22;1.80;;;6.00;99.90;;;;;;5021672;28;20504;-71
2022/03/30 05:26:31;;;;;;;2.70;0.75;;;6.10;99.90;;;;;;5006604;28;20044;-71
2022/03/30 05:28:56;;;;;;;1.80;0.40;;;6.10;99.90;;;;;;5022706;28;20041;-72
2022/03/30 05:31:22;;;;;;;0.52;0.20;;;6.00;99.90;;;;;;5021282;28;20091;-72
2022/03/30 05:33:48;;;;;;;0.43;0.17;;;6.00;99.90;;;;;;5019139;28;20041;-73
2022/03/30 05:36:13;;;;;;;1.00;0.20;;;6.00;99.90;;;;;;5019804;28;20072;-72
2022/03/30 05:38:39;;;;;;;2.00;0.20;;;6.00;99.90;;;;;;5020288;28;20729;-72
2022/03/30 05:41:06;;;;;;;1.35;0.10;;;6.00;99.90;;;;;;5023222;28;20037;-73
2022/03/30 05:43:31;;;;;;;1.80;0.17;;;5.90;99.90;;;;;;5019424;28;20053;-72
2022/03/30 05:45:57;;;;;;;0.52;0.20;;;6.00;99.90;;;;;;5019962;28;20045;-73
2022/03/30 05:48:22;;;;;;;2.20;0.35;;;6.00;99.90;;;;;;5019357;28;20045;-73
2022/03/30 05:50:51;;;;;;;0.38;0.10;;;5.90;99.90;;;;;;5018831;28;20033;-72
2022/03/30 05:53:17;;;;;;;1.90;1.20;;;5.80;99.90;;;;;;5021578;28;20886;-72
2022/03/30 05:55:44;;;;;;;0.47;0.20;;;5.80;99.90;;;;;;5026045;28;20069;-71
2022/03/30 05:58:11;;;;;;;0.70;0.10;;;5.80;99.90;;;;;;5022448;28;20128;-72
2022/03/30 06:00:37;;;;;;;1.73;0.35;;;5.70;99.90;;;;;;5024098;28;20045;-71
2022/03/30 06:03:03;;;;;;;2.53;0.25;;;5.70;99.90;;;;;;5021230;28;20033;-71
2022/03/30 06:05:28;;;;;;;2.65;0.30;;;5.70;99.90;;;;;;5005836;28;20049;-71
2022/03/30 06:07:57;;;;;;;1.83;0.30;;;5.80;99.90;;;;;;5019697;28;20821;-71
2022/03/30 06:10:28;;;;;;;0.15;0.10;;;5.80;99.90;;;;;;5016158;28;20687;-71
2022/03/30 06:12:57;;;;;;;0.70;0.20;;;5.80;99.90;;;;;;5012197;28;20037;-71
2022/03/30 06:15:24;;;;;;;1.42;0.28;;;5.90;99.90;;;;;;5013001;28;20047;-71
2022/03/30 06:17:51;;;;;;;1.23;0.20;;;6.00;99.90;;;;;;5013088;28;20080;-71
2022/03/30 06:20:17;;;;;;;1.67;0.30;;;6.10;99.90;;;;;;5011558;28;20033;-72
2022/03/30 06:22:43;;;;;;;1.05;0.50;;;6.20;99.90;;;;;;5012997;28;20124;-71
2022/03/30 06:25:10;;;;;;;0.57;0.20;;;6.20;99.90;;;;;;5011883;28;20598;-70
2022/03/30 06:27:41;;;;;;;0.55;0.28;;;6.30;99.90;;;;;;5010393;28;20041;-71
2022/03/30 06:30:08;;;;;;;2.33;0.45;;;6.40;99.90;;;;;;5010887;28;20069;-71
2022/03/30 06:32:35;;;;;;;0.82;0.40;;;6.50;99.90;;;;;;5018815;28;20046;-71
2022/03/30 06:35:05;;;;;;;1.20;0.30;;;6.90;99.90;;;;;;5002385;28;20041;-71
2022/03/30 06:37:31;;;;;;;0.95;0.32;;;7.30;99.90;;;;;;5012375;28;20049;-71
2022/03/30 06:39:57;;;;;;;0.40;0.20;;;7.80;99.90;;;;;;5010801;28;20044;-71
2022/03/30 06:42:23;;;;;;;1.00;0.22;;;8.20;99.90;;;;;;5012431;28;20091;-71
2022/03/30 06:44:49;;;;;;;2.72;0.30;;;8.70;99.90;;;;;;5014876;28;20046;-71
2022/03/30 06:47:14;;;;;;;2.83;0.50;;;9.00;99.90;;;;;;5013022;28;20041;-71
2022/03/30 06:49:40;;;;;;;1.85;0.35;;;9.40;99.90;;;;;;5014405;28;20190;-71
2022/03/30 06:52:08;;;;;;;0.85;0.40;;;9.50;99.90;;;;;;5014620;28;20206;-71
2022/03/30 06:54:35;;;;;;;1.10;0.30;;;9.40;99.90;;;;;;5012438;28;20502;-71
2022/03/30 06:57:02;;;;;;;1.65;0.50;;;9.40;99.90;;;;;;5013203;28;20061;-71
2022/03/30 06:59:28;;;;;;;1.50;0.45;;;9.30;99.90;;;;;;5012420;28;20721;-72
2022/03/30 07:01:55;;;;;;;1.30;0.50;;;9.30;99.90;;;;;;5017136;28;20052;-71
2022/03/30 07:04:22;;;;;;;1.17;0.43;;;9.10;99.90;;;;;;5013062;28;20041;-71
2022/03/30 07:12:19;;;;;;;2.28;0.50;;;8.80;99.90;;;;;;5013327;28;20057;-71
2022/03/30 07:14:47;;;;;;;2.63;0.65;;;8.80;99.90;;;;;;5013383;28;21198;-71
2022/03/30 07:17:14;;;;;;;1.90;0.63;;;8.60;99.90;;;;;;5011872;28;20067;-70
2022/03/30 07:19:40;;;;;;;1.40;0.52;;;8.40;99.90;;;;;;5012613;28;20044;-71
2022/03/30 07:22:07;;;;;;;1.73;0.70;;;8.20;99.90;;;;;;5014248;28;20055;-72
2022/03/30 07:24:33;;;;;;;4.40;1.25;;;8.10;99.90;;;;;;5010412;28;20045;-72
2022/03/30 07:26:58;;;;;;;1.73;0.88;;;8.10;99.90;;;;;;5012899;28;20044;-71
2022/03/30 07:29:24;;;;;;;1.42;0.80;;;8.10;99.90;;;;;;5013119;28;21488;-72
2022/03/30 07:31:50;;;;;;;3.28;0.70;;;8.10;99.90;;;;;;5012018;28;20159;-72
2022/03/30 07:34:17;;;;;;;2.95;0.70;;;8.10;99.90;;;;;;5011672;28;20067;-72
2022/03/30 07:36:42;;;;;;;2.17;0.70;;;8.20;99.90;;;;;;5011516;28;20049;-72
2022/03/30 07:39:08;;;;;;;2.92;0.75;;;8.20;99.90;;;;;;5015033;28;20025;-71
2022/03/30 07:41:34;;;;;;;3.25;1.00;;;8.10;99.90;;;;;;5010482;28;20049;-72
2022/03/30 07:44:00;;;;;;;4.78;1.58;;;8.10;99.90;;;;;;5011249;28;20041;-72
2022/03/30 07:46:26;;;;;;;5.15;0.70;;;8.10;99.90;;;;;;5011883;28;20478;-72
2022/03/30 07:48:52;;;;;;;3.38;0.90;;;8.30;99.90;;;;;;5012845;28;20068;-72
2022/03/30 07:51:18;;;;;;;2.55;0.50;;;8.10;99.90;;;;;;5009707;28;20033;-72
2022/03/30 07:53:43;;;;;;;3.55;1.13;;;8.10;99.90;;;;;;5012595;28;20067;-72
2022/03/30 07:56:09;;;;;;;2.33;1.10;;;8.20;99.90;;;;;;5013198;28;20037;-72
2022/03/30 07:58:34;;;;;;;2.67;0.77;;;8.20;99.90;;;;;;5013284;28;20646;-72
2022/03/30 08:01:00;;;;;;;5.18;0.95;;;8.20;99.90;;;;;;5012368;28;20491;-72
2022/03/30 08:03:26;;;;;;;2.83;0.70;;;8.30;99.90;;;;;;5012836;28;20056;-71
2022/03/30 08:05:52;;;;;;;6.85;0.90;;;8.30;99.90;;;;;;5008293;28;20050;-71
2022/03/30 08:08:18;;;;;;;2.28;0.90;;;8.20;99.90;;;;;;4994180;28;20049;-71
2022/03/30 08:10:44;;;;;;;5.05;1.23;;;8.20;99.90;;;;;;5027823;28;20073;-72
2022/03/30 08:13:12;;;;;;;4.03;1.13;;;8.20;99.90;;;;;;5008738;28;20052;-71
2022/03/30 08:15:39;;;;;;;3.42;1.50;;;8.10;99.90;;;;;;5014403;28;20041;-71
2022/03/30 08:18:07;;;;;;;3.22;1.15;;;8.00;99.90;;;;;;5001467;28;20052;-71
2022/03/30 08:23:18;;;;;;;2.38;1.02;;;7.90;99.90;;;;;;5007751;28;20045;-72
2022/03/30 08:25:53;;;;;;;4.78;1.50;;;8.00;99.90;;;;;;5011976;28;20056;-72
2022/03/30 08:28:19;;;;;;;4.43;1.20;;;8.10;99.90;;;;;;5005588;28;20080;-73
2022/03/30 08:30:44;;;;;;;5.80;2.75;;;8.10;99.90;;;;;;5008562;28;22112;-72
2022/03/30 08:33:10;;;;;;;4.20;1.02;;;8.10;99.90;;;;;;5017509;28;20053;-72
2022/03/30 08:35:36;;;;;;;4.35;2.00;;;8.20;99.90;;;;;;5013574;28;20150;-71
2022/03/30 08:38:03;;;;;;;10.90;2.13;;;8.20;99.90;;;;;;5010607;28;20040;-71
2022/03/30 08:40:29;;;;;;;2.13;1.40;;;8.20;99.90;;;;;;4994500;28;20083;-71
2022/03/30 08:42:55;;;;;;;3.25;1.50;;;8.20;99.90;;;;;;5010394;28;20049;-72
2022/03/30 08:45:21;;;;;;;3.70;2.00;;;8.20;99.90;;;;;;5012086;28;20053;-71
2022/03/30 08:47:47;;;;;;;3.33;2.05;;;8.30;99.90;;;;;;5011550;28;20065;-72
2022/03/30 08:50:13;;;;;;;4.60;1.55;;;8.30;99.90;;;;;;5011320;28;20045;-70
2022/03/30 08:52:39;;;;;;;3.95;1.55;;;8.40;99.90;;;;;;5013541;28;20045;-71
2022/03/30 08:55:06;;;;;;;2.78;1.20;;;8.50;99.90;;;;;;5009236;28;20033;-71
2022/03/30 08:57:32;;;;;;;4.03;1.10;;;8.50;99.90;;;;;;5011044;28;20087;-71
2022/03/30 09:00:02;;;;;;;2.00;1.23;;;8.60;99.90;;;;;;5002681;28;21235;-71
2022/03/30 09:02:42;;;;;;;4.40;1.17;;;8.50;99.90;;;;;;5010906;28;20397;-71
2022/03/30 09:05:14;;;;;;;2.40;1.27;;;8.60;99.90;;;;;;5008836;28;20053;-71
2022/03/30 09:07:44;;;;;;;5.93;1.30;;;8.70;99.90;;;;;;5010989;28;20099;-71
2022/03/30 09:10:18;;;;;;;3.05;1.50;;;8.70;99.90;;;;;;4993937;28;20038;-70
2022/03/30 09:12:46;;;;;;;4.55;1.63;;;8.80;99.90;;;;;;5010007;28;20061;-71
2022/03/30 09:15:12;;;;;;;2.63;1.05;;;8.80;99.90;;;;;;5010397;28;20578;-71
2022/03/30 09:17:42;;;;;;;3.38;1.20;;;8.80;99.90;;;;;;5010872;28;20168;-71
2022/03/30 09:20:17;;;;;;;2.08;1.20;;;8.80;99.90;;;;;;5007555;28;20083;-71
2022/03/30 09:22:45;;;;;;;2.83;1.00;;;8.90;99.90;;;;;;5013954;28;20077;-71
2022/03/30 09:25:12;;;;;;;3.05;0.98;;;8.90;99.90;;;;;;5012707;28;20040;-71
2022/03/30 09:27:43;;;;;;;2.08;0.73;;;8.90;99.90;;;;;;5011031;28;20081;-71
2022/03/30 09:30:11;;;;;;;4.38;0.82;;;8.80;99.90;;;;;;5021076;28;21355;-71
2022/03/30 09:32:41;;;;;;;6.53;1.10;;;8.80;99.90;;;;;;5015306;28;20048;-70
2022/03/30 09:35:19;;;;;;;3.28;0.85;;;8.80;99.90;;;;;;5013147;28;20063;-71
2022/03/30 09:37:57;;;;;;;3.90;1.55;;;8.50;99.90;;;;;;5013785;28;20037;-71
2022/03/30 09:40:52;;;;;;;5.05;1.70;;;8.40;99.90;;;;;;5013596;28;20083;-71
2022/03/30 09:43:24;;;;;;;4.50;2.25;;;8.30;99.90;;;;;;5016334;28;20041;-71
2022/03/30 09:46:04;;;;;;;5.03;2.45;;;8.10;99.90;;;;;;5014428;28;20041;-71
2022/03/30 09:48:32;;;;;;;6.05;2.72;;;8.00;99.90;;;;;;5016538;28;20045;-71
2022/03/30 09:51:02;;;;;;;6.35;2.28;;;7.90;99.90;;;;;;5012479;28;21385;-70
2022/03/30 09:53:30;;;;;;;3.75;2.28;;;7.80;99.90;;;;;;5015686;28;20042;-70
2022/03/30 09:56:28;;;;;;;5.75;2.20;;;7.80;99.90;;;;;;5016038;28;20041;-70
2022/03/30 09:59:02;;;;;;;2.58;1.75;;;7.70;99.90;;;;;;5012019;28;20222;-70
2022/03/30 10:01:33;;;;;;;8.15;1.52;;;7.80;99.90;;;;;;5014397;28;20034;-70
2022/03/30 10:04:02;;;;;;;4.07;0.95;;;7.80;99.90;;;;;;5012375;28;20053;-70
2022/03/30 10:06:32;;;;;;;4.40;1.10;;;8.00;99.90;;;;;;5014522;28;20112;-70
2022/03/30 10:08:58;;;;;;;4.28;0.98;;;8.00;99.90;;;;;;5013495;28;20041;-70
2022/03/30 10:11:26;;;;;;;6.60;0.80;;;8.10;99.90;;;;;;5010584;28;20072;-72
2022/03/30 10:13:56;;;;;;;3.30;0.60;;;8.30;99.90;;;;;;5012550;28;20494;-73
2022/03/30 10:16:23;;;;;;;1.60;0.50;;;8.40;99.90;;;;;;5012305;28;20049;-73
2022/03/30 10:18:51;;;;;;;2.60;0.75;;;8.50;99.90;;;;;;5010963;28;20072;-73
2022/03/30 10:21:40;;;;;;;3.15;0.75;;;8.50;99.90;;;;;;5012972;28;20405;-71
2022/03/30 10:24:12;;;;;;;3.50;0.98;;;8.70;99.90;;;;;;5013879;28;20427;-71
2022/03/30 10:26:59;;;;;;;3.90;0.80;;;8.60;99.90;;;;;;5013817;28;20037;-71
2022/03/30 10:29:27;;;;;;;3.78;1.13;;;8.70;99.90;;;;;;5011366;28;20041;-70
2022/03/30 10:32:23;;;;;;;2.67;0.60;;;8.70;99.90;;;;;;5013626;28;20041;-71
2022/03/30 10:34:59;;;;;;;5.78;0.60;;;8.60;99.90;;;;;;5006567;28;20446;-70
2022/03/30 10:37:28;;;;;;;4.97;0.45;;;8.40;99.90;;;;;;5012362;28;20041;-70
2022/03/30 10:40:00;;;;;;;2.67;0.57;;;8.40;99.90;;;;;;5013296;28;20049;-70
2022/03/30 10:42:25;;;;;;;4.47;0.50;;;8.40;99.90;;;;;;5012397;28;20115;-69
2022/03/30 10:44:57;;;;;;;6.13;1.05;;;8.60;99.90;;;;;;5011725;28;20049;-70
2022/03/30 10:47:27;;;;;;;3.35;0.80;;;8.70;99.90;;;;;;5011608;28;20041;-70
2022/03/30 10:49:55;;;;;;;2.67;0.57;;;8.90;99.90;;;;;;4996047;28;20052;-70
2022/03/30 10:52:40;;;;;;;2.88;0.90;;;9.00;99.90;;;;;;5013881;28;20395;-69
2022/03/30 10:55:12;;;;;;;1.05;0.30;;;8.90;99.80;;;;;;5011427;28;20053;-70
2022/03/30 10:57:58;;;;;;;4.97;1.42;;;8.80;99.90;;;;;;5013885;28;20048;-70
2022/03/30 11:00:28;;;;;;;2.63;0.40;;;9.00;99.90;;;;;;5011895;28;20045;-70
2022/03/30 11:03:26;;;;;;;4.07;0.32;;;9.00;99.60;;;;;;5014885;28;20041;-70
2022/03/30 11:06:01;;;;;;;3.55;0.60;;;8.90;99.90;;;;;;5003224;28;20057;-71
2022/03/30 11:08:33;;;;;;;1.63;0.40;;;8.90;99.90;;;;;;5012116;28;20069;-70
2022/03/30 11:11:20;;;;;;;6.93;0.63;;;8.90;99.90;;;;;;5025171;28;20047;-69
2022/03/30 11:13:45;;;;;;;4.05;0.88;;;8.90;99.90;;;;;;5020034;28;20038;-71
2022/03/30 11:16:11;;;;;;;3.95;0.40;;;8.60;99.90;;;;;;5024357;28;20041;-70
2022/03/30 11:19:00;;;;;;;6.18;0.70;;;8.50;99.90;;;;;;5025321;28;20128;-71
2022/03/30 11:21:26;;;;;;;3.72;0.43;;;8.30;99.90;;;;;;5036851;28;20491;-71
2022/03/30 11:24:10;;;;;;;3.15;0.65;;;8.30;99.90;;;;;;5025719;28;20037;-71
2022/03/30 11:26:48;;;;;;;4.95;0.70;;;8.30;99.90;;;;;;5021312;28;20041;-71
2022/03/30 11:29:47;;;;;;;5.78;0.47;;;8.40;99.90;;;;;;5016797;28;20083;-71
2022/03/30 11:32:18;;;;;;;2.78;0.50;;;8.50;99.90;;;;;;5021226;28;20042;-71
2022/03/30 11:34:46;;;;;;;7.97;0.75;;;8.50;99.90;;;;;;5025364;28;20399;-70
2022/03/30 11:37:13;;;;;;;3.28;0.93;;;8.60;99.90;;;;;;5020707;28;20037;-69
2022/03/30 11:39:40;;;;;;;3.10;1.50;;;8.60;99.90;;;;;;5037375;28;20045;-69
2022/03/30 11:42:05;;;;;;;2.53;0.50;;;8.70;99.90;;;;;;5019683;28;20103;-70
2022/03/30 11:47:19;;;;;;;1.85;0.55;;;8.90;99.90;;;;;;5025218;28;20120;-71
2022/03/30 11:50:03;;;;;;;4.05;0.55;;;9.10;99.90;;;;;;5023039;28;20037;-71
2022/03/30 11:52:29;;;;;;;3.33;0.55;;;9.10;99.60;;;;;;5022188;28;20038;-70
2022/03/30 11:54:55;;;;;;;3.83;0.75;;;9.10;99.60;;;;;;5021631;28;20040;-70
2022/03/30 11:57:22;;;;;;;2.33;0.50;;;9.20;97.90;;;;;;5022632;28;20511;-70
2022/03/30 12:00:03;;;;;;;4.38;0.70;;;9.20;98.40;;;;;;5021439;28;20396;-70
2022/03/30 12:02:29;;;;;;;2.10;0.50;;;9.40;98.30;;;;;;5019583;28;20375;-70
2022/03/30 12:04:56;;;;;;;3.30;0.52;;;9.40;97.30;;;;;;5019717;28;20048;-70
2022/03/30 12:07:22;;;;;;;4.32;0.50;;;9.40;95.30;;;;;;5016946;28;20081;-70
2022/03/30 12:09:51;;;;;;;3.72;0.55;;;9.40;94.90;;;;;;5015320;28;20041;-70
2022/03/30 12:12:27;;;;;;;5.82;0.93;;;9.20;95.80;;;;;;5017977;28;20121;-70
2022/03/30 12:14:57;;;;;;;2.60;0.50;;;9.10;95.70;;;;;;5019495;28;20033;-69
2022/03/30 12:17:27;;;;;;;5.00;0.90;;;9.00;95.50;;;;;;5020805;28;20042;-70
2022/03/30 12:19:54;;;;;;;3.40;0.77;;;9.00;95.00;;;;;;5021582;28;20152;-70
2022/03/30 12:22:20;;;;;;;2.92;0.40;;;8.90;95.40;;;;;;5018650;28;20521;-70
2022/03/30 12:24:46;;;;;;;3.60;0.75;;;8.90;95.10;;;;;;5007130;28;20103;-69
2022/03/30 12:27:12;;;;;;;11.18;1.08;;;8.80;95.20;;;;;;5024349;28;20037;-69
2022/03/30 12:29:38;;;;;;;2.92;0.50;;;8.60;95.80;;;;;;5020526;28;20069;-69
2022/03/30 12:32:05;;;;;;;3.35;0.40;;;8.40;96.40;;;;;;5023140;28;20053;-68
2022/03/30 12:34:35;;;;;;;5.50;0.80;;;8.30;96.10;;;;;;5018675;28;20393;-68
2022/03/30 12:37:05;;;;;;;3.33;0.30;;;8.10;96.10;;;;;;5020590;28;20499;-69
2022/03/30 12:39:46;;;;;;;3.28;0.47;;;8.00;96.70;;;;;;5019882;28;20045;-69
2022/03/30 12:42:14;;;;;;;2.80;0.43;;;8.00;96.90;;;;;;5022162;28;20047;-69
2022/03/30 12:44:50;;;;;;;8.38;0.52;;;8.00;96.40;;;;;;5019942;28;20131;-69
2022/03/30 12:47:36;;;;;;;4.45;0.50;;;7.90;97.50;;;;;;5020862;28;20041;-70
2022/03/30 12:50:12;;;;;;;2.80;0.75;;;7.90;98.40;;;;;;5019494;28;20132;-70
2022/03/30 12:52:40;;;;;;;2.67;0.65;;;8.00;99.10;;;;;;5019780;28;20041;-70
2022/03/30 12:55:12;;;;;;;1.73;0.50;;;8.00;99.30;;;;;;5019580;28;20041;-70
2022/03/30 12:57:49;;;;;;;4.82;0.43;;;8.10;98.90;;;;;;5020117;28;20049;-69
2022/03/30 13:00:24;;;;;;;3.92;0.47;;;8.10;98.20;;;;;;5020063;28;20049;-70
2022/03/30 13:03:22;;;;;;;5.33;0.70;;;8.10;98.50;;;;;;5020813;28;20064;-69
2022/03/30 13:06:04;;;;;;;3.92;0.45;;;8.10;98.20;;;;;;5016858;28;20504;-69
2022/03/30 13:08:29;;;;;;;3.33;0.70;;;8.20;97.40;;;;;;5022478;28;20049;-69
2022/03/30 13:10:57;;;;;;;4.60;0.30;;;8.30;96.40;;;;;;5024559;28;20056;-70
2022/03/30 13:13:27;;;;;;;3.45;0.50;;;8.30;96.00;;;;;;5023931;28;20061;-69